Data for 11/14/2017

Time Sea-Level Adjusted Pressure Absolute Pressure Temperature Relative Humidity Dew Point   
(mb) (inHg) (mb) (inHg) (C) (F) (%) (C) (F)
00:05 1016 30 845 24.95 3.1 37.6 60 -4 24.8
00:10 1016 30 845 24.95 3.2 37.7 60 -3.9 25
00:15 1016 30 845 24.95 3 37.3 64 -3.2 26.2
00:20 1016 30 845 24.95 3 37.3 63 -3.4 25.9
00:25 1016 30 845 24.95 2.9 37.3 67 -2.5 27.4
00:30 1016 30 845 24.95 2.4 36.3 69 -2.7 27.1
00:35 1016 30 845 24.95 2.4 36.3 68 -3 26.6
00:40 1016 30 845 24.95 2.4 36.3 68 -2.8 26.9
00:45 1016 30 845 24.95 2.3 36.1 68 -3 26.7
00:50 1015 29.97 845 24.95 2.2 35.9 69 -3 26.6
00:55 1015 29.97 845 24.95 2.1 35.8 69 -3 26.6
01:00 1015 29.97 845 24.95 2 35.7 68 -3.3 26
01:05 1016 30 845 24.95 2.2 35.9 67 -3.3 26.1
01:10 1016 30 845 24.95 2.2 36 67 -3.3 26
01:15 1016 30 845 24.95 2.4 36.3 66 -3.4 26
01:20 1016 30 845 24.95 2.3 36.2 66 -3.4 25.9
01:25 1016 30 845 24.95 2.3 36.1 66 -3.4 25.9
01:30 1016 30 845 24.95 2.2 36 66 -3.4 25.9
01:35 1016 30 845 24.95 2.1 35.7 66 -3.5 25.7
01:40 1016 30 845 24.95 2 35.5 67 -3.4 25.8
01:45 1016 30 845 24.95 1.7 35 69 -3.5 25.7
01:50 1016 30 845 24.95 1.8 35.3 67 -3.7 25.4
01:55 1016 30 845 24.95 2.1 35.7 68 -3.3 26.1
02:00 1016 30 845 24.95 2 35.7 68 -3.3 26.1
02:05 1016 30 845 24.95 1.8 35.2 70 -3.1 26.5
02:10 1016 30 845 24.95 1.4 34.5 71 -3.2 26.2
02:15 1016 30 845 24.95 1.1 34 73 -3.2 26.2
02:20 1016 30 845 24.95 1.1 34 73 -3.2 26.2
02:25 1016 30 845 24.95 1.1 34 73 -3.3 26.1
02:30 1016 30 845 24.95 1 33.8 73 -3.2 26.2
02:35 1016 30 845 24.95 1 33.9 73 -3.3 26.1
02:40 1016 30 845 24.95 1 33.8 73 -3.2 26.2
02:45 1016 30 845 24.95 0.9 33.6 74 -3.2 26.2
02:50 1016 30 845 24.95 0.8 33.5 75 -3.2 26.3
02:55 1016 30 845 24.95 0.8 33.4 75 -3.1 26.4
03:00 1016 30 845 24.95 0.7 33.3 76 -3.1 26.4
03:05 1016 30 845 24.95 0.6 33.2 76 -3.2 26.3
03:10 1016 30 845 24.95 0.3 32.5 78 -3.2 26.3
03:15 1016 30 845 24.95 -0.1 31.8 79 -3.3 26.1
03:20 1016 30 845 24.95 -0.1 31.9 80 -3.2 26.3
03:25 1016 30 845 24.95 0.1 32.2 79 -3.1 26.5
03:30 1016 30 845 24.95 0.4 32.6 79 -2.9 26.7
03:35 1016 30 845 24.95 0.3 32.6 79 -2.9 26.8
03:40 1016 30 845 24.95 0.4 32.8 79 -2.8 27
03:45 1016 30 845 24.95 0.5 33 79 -2.7 27.1
03:50 1016 30 845 24.95 0.7 33.3 78 -2.7 27.1
03:55 1016 30 845 24.95 0.8 33.4 79 -2.4 27.6
04:00 1016 30 845 24.95 0.5 33 82 -2.2 28.1
04:05 1016 30 845 24.95 0.2 32.4 85 -2.1 28.3
04:10 1016 30 845 24.95 0.1 32.2 86 -1.9 28.6
04:15 1016 30 845 24.95 0.1 32.2 87 -1.8 28.8
04:20 1016 30 845 24.95 -0.1 31.9 89 -1.7 28.9
04:25 1016 30 845 24.95 -0.2 31.7 90 -1.6 29.1
04:30 1016 30 845 24.95 -0.1 31.8 90 -1.5 29.3
04:35 1016 30 845 24.95 -0.1 31.8 91 -1.4 29.4
04:40 1016 30 845 24.95 -0.2 31.6 91 -1.5 29.4
04:45 1016 30 845 24.95 -0.3 31.5 92 -1.4 29.5
04:50 1016 30 845 24.95 -0.2 31.6 92 -1.3 29.6
04:55 1016 30 845 24.95 -0.2 31.6 93 -1.3 29.7
05:00 1016 30 845 24.95 -0.1 31.8 93 -1.2 29.9
05:05 1016 30 845 24.95 -0.1 31.9 93 -1.1 30
05:10 1016 30 845 24.95 0 32.1 93 -1 30.2
05:15 1016 30 845 24.95 0 32.1 93 -1 30.3
05:20 1016 30 845 24.95 0.1 32.1 93 -0.9 30.3
05:25 1016 30 846 24.98 0 32.1 93 -1 30.3
05:30 1016 30 846 24.98 0.1 32.1 93 -0.9 30.3
05:35 1016 30 846 24.98 0 32 93 -1 30.2
05:40 1016 30 846 24.98 0 32.1 93 -0.9 30.3
05:45 1017 30.03 846 24.98 0.1 32.1 93 -0.9 30.3
05:50 1017 30.03 846 24.98 0.1 32.1 93 -0.9 30.3
05:55 1017 30.03 846 24.98 0.1 32.1 93 -0.9 30.4
06:00 1017 30.03 846 24.98 -0 31.9 93 -1 30.1
06:05 1017 30.03 846 24.98 -0.2 31.7 93 -1.1 30
06:10 1017 30.03 846 24.98 -0.1 31.7 93 -1.1 30
06:15 1017 30.03 846 24.98 -0.2 31.7 93 -1.1 30
06:20 1017 30.03 846 24.98 -0.2 31.7 93 -1.1 30
06:25 1017 30.03 846 24.98 -0.1 31.8 93 -1.1 30.1
06:30 1017 30.03 847 25.01 -0 32 93 -1 30.3
06:35 1017 30.03 847 25.01 0.1 32.1 93 -0.9 30.4
06:40 1018 30.06 847 25.01 0.1 32.2 93 -0.9 30.5
06:45 1018 30.06 847 25.01 0.1 32.1 93 -0.9 30.4
06:50 1018 30.06 847 25.01 0.1 32.1 93 -0.9 30.4
06:55 1018 30.06 847 25.01 0.1 32.1 93 -0.9 30.4
07:00 1018 30.06 847 25.01 0 32.1 93 -0.9 30.3
07:05 1018 30.06 847 25.01 -0 32 93 -1 30.3
07:10 1018 30.06 848 25.04 -0 31.9 93 -1 30.2
07:15 1018 30.06 848 25.04 -0.1 31.9 93 -1 30.2
07:20 1018 30.06 847 25.01 -0.1 31.9 93 -1 30.2
07:25 1018 30.06 847 25.01 -0 31.9 93 -1 30.2
07:30 1018 30.06 847 25.01 -0.1 31.8 93 -1.1 30
07:35 1018 30.06 847 25.01 -0.1 31.8 93 -1.1 30
07:40 1018 30.06 847 25.01 -0.1 31.8 93 -1.1 29.9
07:45 1018 30.06 847 25.01 -0.1 31.9 92 -1.2 29.8
07:50 1018 30.06 847 25.01 -0.1 31.9 92 -1.3 29.7
07:55 1018 30.06 847 25.01 -0 31.9 91 -1.3 29.6
08:00 1018 30.06 847 25.01 0 32.1 90 -1.4 29.5
08:05 1018 30.06 847 25.01 0.2 32.3 89 -1.4 29.5
08:10 1018 30.06 847 25.01 0.2 32.4 88 -1.5 29.4
08:15 1018 30.06 847 25.01 0.4 32.7 87 -1.6 29.2
08:20 1018 30.06 847 25.01 0.4 32.8 86 -1.7 29
08:25 1018 30.06 847 25.01 0.5 33 84 -1.9 28.5
08:30 1018 30.06 847 25.01 0.6 33.2 83 -2 28.4
08:35 1018 30.06 847 25.01 0.7 33.3 81 -2.2 28.1
08:40 1018 30.06 847 25.01 0.8 33.5 80 -2.2 28.1
08:45 1018 30.06 847 25.01 1.2 34.1 78 -2.3 27.9
08:50 1018 30.06 847 25.01 1.3 34.4 78 -2.2 28.1
08:55 1018 30.06 847 25.01 1.6 34.8 76 -2.1 28.2
09:00 1018 30.06 847 25.01 1.9 35.4 74 -2.2 28
09:05 1018 30.06 847 25.01 2.2 36 71 -2.4 27.7
09:10 1018 30.06 847 25.01 2.6 36.7 67 -3 26.6
09:15 1018 30.06 847 25.01 2.7 36.9 66 -3 26.6
09:20 1018 30.06 847 25.01 2.8 37 66 -2.9 26.8
09:25 1018 30.06 847 25.01 2.9 37.2 65 -3 26.5
09:30 1018 30.06 848 25.04 2.9 37.2 66 -2.9 26.8
09:35 1019 30.09 848 25.04 2.9 37.3 65 -3 26.6
09:40 1019 30.09 848 25.04 3 37.4 65 -3 26.5
09:45 1019 30.09 848 25.04 2.9 37.3 65 -3.1 26.4
09:50 1019 30.09 848 25.04 3.1 37.6 63 -3.3 26.1
09:55 1019 30.09 848 25.04 3.3 38 64 -2.8 27
10:00 1019 30.09 848 25.04 3.5 38.2 64 -2.8 27
10:05 1019 30.09 848 25.04 3.7 38.6 63 -2.7 27.2
10:10 1019 30.09 848 25.04 3.9 39.1 61 -3 26.7
10:15 1019 30.09 848 25.04 3.8 38.9 62 -2.8 27
10:20 1019 30.09 848 25.04 3.6 38.5 63 -2.8 27
10:25 1019 30.09 848 25.04 3.3 37.9 65 -2.7 27.1
10:30 1019 30.09 848 25.04 3.2 37.8 66 -2.6 27.3
10:35 1019 30.09 848 25.04 3.3 37.9 67 -2.3 27.9
10:40 1019 30.09 848 25.04 3 37.5 68 -2.3 27.9
10:45 1019 30.09 849 25.07 3 37.5 69 -2.1 28.3
10:50 1019 30.09 849 25.07 3.8 38.9 64 -2.3 27.9
10:55 1019 30.09 849 25.07 4.5 40.1 62 -2.1 28.2
11:00 1020 30.12 849 25.07 3.8 38.8 64 -2.4 27.7
11:05 1020 30.12 849 25.07 3.9 39 63 -2.5 27.4
11:10 1020 30.12 849 25.07 4.4 39.9 61 -2.5 27.6
11:15 1020 30.12 849 25.07 4.4 40 60 -2.7 27.1
11:20 1020 30.12 849 25.07 4.3 39.8 60 -2.7 27.1
11:25 1020 30.12 849 25.07 4.4 39.9 59 -2.9 26.8
11:30 1020 30.12 849 25.07 4.6 40.3 59 -2.7 27.1
11:35 1020 30.12 849 25.07 4.6 40.3 60 -2.5 27.6
11:40 1020 30.12 849 25.07 4.5 40 59 -2.9 26.8
11:45 1020 30.12 849 25.07 4.3 39.7 61 -2.7 27.2
11:50 1020 30.12 849 25.07 3.9 39.1 62 -2.6 27.3
11:55 1020 30.12 849 25.07 4 39.2 61 -2.9 26.8
12:00 1020 30.12 849 25.07 3.9 39 62 -2.6 27.3
12:05 1020 30.12 849 25.07 3.9 39 61 -3 26.6
12:10 1020 30.12 849 25.07 4.4 40 58 -3.2 26.3
12:15 1020 30.12 849 25.07 4.8 40.6 56 -3.3 26.1
12:20 1020 30.12 849 25.07 4.9 40.8 57 -2.9 26.7
12:25 1020 30.12 849 25.07 4.9 40.7 57 -3.1 26.5
12:30 1020 30.12 849 25.07 4.8 40.6 56 -3.2 26.3
12:35 1020 30.12 849 25.07 4.9 40.8 57 -3 26.7
12:40 1020 30.12 850 25.1 5.4 41.7 54 -3.1 26.5
12:45 1020 30.12 850 25.1 6 42.8 54 -2.6 27.4
12:50 1020 30.12 850 25.1 5.9 42.7 56 -2.3 27.9
12:55 1021 30.15 850 25.1 5.4 41.7 57 -2.5 27.5
13:00 1021 30.15 850 25.1 4.5 40.1 60 -2.5 27.6
13:05 1021 30.15 850 25.1 4.8 40.6 59 -2.6 27.3
13:10 1021 30.15 850 25.1 4.5 40.1 59 -2.8 27
13:15 1021 30.15 850 25.1 4.1 39.4 60 -2.9 26.8
13:20 1021 30.15 850 25.1 3.8 38.8 62 -2.9 26.8
13:25 1021 30.15 850 25.1 3.6 38.5 62 -2.9 26.7
13:30 1021 30.15 850 25.1 3.5 38.2 64 -2.7 27.1
13:35 1021 30.15 850 25.1 3.6 38.4 64 -2.7 27.2
13:40 1021 30.15 850 25.1 3.7 38.6 61 -3.1 26.5
13:45 1021 30.15 850 25.1 4.2 39.6 59 -3 26.7
13:50 1021 30.15 850 25.1 4.4 39.9 56 -3.6 25.5
13:55 1021 30.15 850 25.1 4.7 40.5 55 -3.5 25.8
14:00 1021 30.15 850 25.1 4.4 39.9 56 -3.5 25.7
14:05 1021 30.15 850 25.1 4.5 40.1 56 -3.5 25.7
14:10 1021 30.15 850 25.1 4.5 40.1 57 -3.3 26
14:15 1021 30.15 850 25.1 4.1 39.4 58 -3.4 25.8
14:20 1021 30.15 850 25.1 3.7 38.7 60 -3.3 26
14:25 1021 30.15 850 25.1 3.6 38.5 60 -3.4 25.8
14:30 1021 30.15 850 25.1 3.8 38.8 59 -3.6 25.6
14:35 1021 30.15 850 25.1 3.9 39 57 -3.9 25
14:40 1021 30.15 850 25.1 4.4 39.9 55 -3.8 25.1
14:45 1021 30.15 850 25.1 5 40.9 53 -3.9 25.1
14:50 1021 30.15 851 25.13 5.2 41.3 53 -3.7 25.4
14:55 1021 30.15 851 25.13 5.1 41.2 54 -3.4 25.8
15:00 1021 30.15 851 25.13 4.9 40.9 53 -3.9 24.9
15:05 1021 30.15 851 25.13 5 41 53 -3.9 25
15:10 1022 30.18 851 25.13 4.8 40.6 52 -4.2 24.5
15:15 1022 30.18 851 25.13 4.7 40.4 54 -3.9 25
15:20 1022 30.18 851 25.13 4.6 40.3 54 -4 24.9
15:25 1022 30.18 851 25.13 4.5 40.1 53 -4.3 24.2
15:30 1022 30.18 851 25.13 3.9 39.1 54 -4.5 23.9
15:35 1022 30.18 851 25.13 3.7 38.6 53 -4.9 23.1
15:40 1022 30.18 851 25.13 3.6 38.5 55 -4.5 23.9
15:45 1022 30.18 851 25.13 3.3 37.9 56 -4.7 23.6
15:50 1022 30.18 851 25.13 2.9 37.3 57 -4.7 23.6
15:55 1022 30.18 851 25.13 2.5 36.6 57 -5.1 22.9
16:00 1022 30.18 851 25.13 2.5 36.5 58 -5 23
16:05 1022 30.18 851 25.13 2.4 36.3 59 -4.7 23.5
16:10 1022 30.18 851 25.13 1.9 35.5 62 -4.5 23.9
16:15 1022 30.18 851 25.13 1.7 35.1 63 -4.5 23.9
16:20 1022 30.18 851 25.13 1.7 35.1 63 -4.6 23.7
16:25 1022 30.18 851 25.13 1.5 34.8 60 -5.4 22.2
16:30 1022 30.18 851 25.13 0.9 33.6 58 -6.3 20.6
16:35 1022 30.18 851 25.13 0.8 33.4 58 -6.5 20.2
16:40 1022 30.18 851 25.13 0.5 32.9 63 -5.7 21.7
16:45 1022 30.18 851 25.13 -0.1 31.9 67 -5.5 22.1
16:50 1022 30.18 851 25.13 -0.4 31.2 69 -5.5 22.2
16:55 1022 30.18 851 25.13 -0.7 30.7 71 -5.4 22.2
17:00 1022 30.18 851 25.13 -0.9 30.4 73 -5.2 22.6
17:05 1022 30.18 851 25.13 -1 30.3 75 -4.9 23.2
17:10 1022 30.18 851 25.13 -1.2 29.8 76 -4.9 23.2
17:15 1022 30.18 851 25.13 -1.3 29.6 75 -5.1 22.8
17:20 1022 30.18 851 25.13 -1.2 29.8 76 -5 23.1
17:25 1022 30.18 851 25.13 -1.3 29.7 76 -5 23.1
17:30 1022 30.18 851 25.13 -1 30.2 75 -4.9 23.1
17:35 1022 30.18 851 25.13 -0.7 30.7 71 -5.3 22.5
17:40 1022 30.18 851 25.13 -0.6 31 71 -5.2 22.7
17:45 1022 30.18 851 25.13 -0.8 30.6 72 -5.2 22.6
17:50 1022 30.18 851 25.13 -1.1 30.1 73 -5.3 22.5
17:55 1022 30.18 852 25.16 -1.4 29.4 75 -5.3 22.5
18:00 1022 30.18 852 25.16 -1.5 29.2 76 -5.3 22.5
18:05 1022 30.18 852 25.16 -1.6 29.2 75 -5.4 22.3
18:10 1023 30.21 852 25.16 -1.5 29.4 74 -5.5 22.1
18:15 1022 30.18 852 25.16 -1.5 29.3 72 -5.8 21.6
18:20 1023 30.21 852 25.16 -1.5 29.3 72 -5.9 21.4
18:25 1023 30.21 852 25.16 -1.5 29.3 72 -6 21.2
18:30 1023 30.21 852 25.16 -1.5 29.3 70 -6.2 20.8
18:35 1023 30.21 852 25.16 -1.4 29.5 71 -6 21.2
18:40 1023 30.21 852 25.16 -1.5 29.3 72 -5.9 21.4
18:45 1023 30.21 852 25.16 -1.7 28.9 73 -6 21.1
18:50 1023 30.21 852 25.16 -1.8 28.8 71 -6.3 20.7
18:55 1023 30.21 852 25.16 -1.9 28.6 73 -6.1 20.9
19:00 1023 30.21 852 25.16 -2.3 27.8 75 -6.1 21
19:05 1023 30.21 852 25.16 -2.6 27.3 77 -6.1 21
19:10 1023 30.21 852 25.16 -2.5 27.5 76 -6.2 20.9
19:15 1023 30.21 852 25.16 -2.6 27.2 76 -6.3 20.6
19:20 1023 30.21 852 25.16 -2.9 26.7 77 -6.4 20.4
19:25 1023 30.21 852 25.16 -3 26.7 76 -6.6 20.2
19:30 1023 30.21 852 25.16 -2.7 27.1 72 -7.1 19.2
19:35 1023 30.21 852 25.16 -2.2 28 70 -6.9 19.5
19:40 1023 30.21 852 25.16 -2.3 27.9 72 -6.6 20.1
19:45 1023 30.21 852 25.16 -2.7 27.2 73 -6.8 19.8
19:50 1023 30.21 852 25.16 -2.9 26.7 74 -7 19.5
19:55 1023 30.21 852 25.16 -3 26.7 72 -7.3 18.8
20:00 1023 30.21 852 25.16 -3 26.6 73 -7.1 19.2
20:05 1023 30.21 852 25.16 -2.8 26.9 70 -7.5 18.5
20:10 1023 30.21 852 25.16 -2.7 27.1 72 -7.1 19.3
20:15 1023 30.21 852 25.16 -3 26.7 72 -7.3 18.9
20:20 1023 30.21 852 25.16 -3.1 26.4 73 -7.3 18.9
20:25 1023 30.21 852 25.16 -3.4 25.9 72 -7.7 18.2
20:30 1023 30.21 852 25.16 -3.4 25.9 71 -8 17.7
20:35 1023 30.21 852 25.16 -3.3 26 69 -8.2 17.2
20:40 1023 30.21 852 25.16 -3.3 26.1 70 -8.1 17.4
20:45 1023 30.21 852 25.16 -3.1 26.4 69 -7.9 17.7
20:50 1023 30.21 852 25.16 -3.3 26.1 69 -8.2 17.2
20:55 1023 30.21 852 25.16 -3.3 26.1 68 -8.3 17.1
21:00 1023 30.21 852 25.16 -3.2 26.2 71 -7.8 17.9
21:05 1023 30.21 852 25.16 -3.5 25.7 72 -7.8 18
21:10 1023 30.21 852 25.16 -3.8 25.1 70 -8.5 16.7
21:15 1023 30.21 852 25.16 -3.8 25.1 70 -8.5 16.7
21:20 1023 30.21 852 25.16 -4 24.8 71 -8.6 16.6
21:25 1023 30.21 852 25.16 -4.1 24.7 73 -8.3 17.1
21:30 1023 30.21 852 25.16 -4.2 24.5 71 -8.7 16.4
21:35 1023 30.21 852 25.16 -4 24.8 71 -8.5 16.8
21:40 1023 30.21 852 25.16 -4.2 24.4 75 -8 17.6
21:45 1023 30.21 852 25.16 -4.1 24.6 74 -8.1 17.4
21:50 1023 30.21 852 25.16 -3.9 24.9 73 -8.1 17.4
21:55 1023 30.21 852 25.16 -3.9 25 71 -8.3 17
22:00 1023 30.21 852 25.16 -3.9 25 72 -8.2 17.3
22:05 1023 30.21 852 25.16 -4.3 24.3 74 -8.3 17.1
22:10 1022 30.18 852 25.16 -4.5 24 74 -8.3 17
22:15 1022 30.18 852 25.16 -4.4 24.1 73 -8.5 16.6
22:20 1022 30.18 852 25.16 -3.9 25 73 -8.1 17.4
22:25 1022 30.18 852 25.16 -3.9 25 71 -8.4 16.9
22:30 1022 30.18 851 25.13 -3.6 25.6 70 -8.2 17.2
22:35 1022 30.18 851 25.13 -3.7 25.3 70 -8.5 16.8
22:40 1022 30.18 851 25.13 -3.9 25 70 -8.5 16.6
22:45 1022 30.18 851 25.13 -4.4 24.1 72 -8.6 16.5
22:50 1022 30.18 851 25.13 -3.9 25 68 -8.9 16
22:55 1022 30.18 851 25.13 -3.6 25.5 69 -8.6 16.6
23:00 1022 30.18 851 25.13 -3.8 25.2 68 -8.8 16.1
23:05 1022 30.18 851 25.13 -3.5 25.7 67 -8.9 16
23:10 1022 30.18 851 25.13 -3.4 25.9 67 -8.7 16.3
23:15 1022 30.18 851 25.13 -3.4 25.8 68 -8.6 16.6
23:20 1022 30.18 851 25.13 -3.8 25.2 69 -8.7 16.4
23:25 1022 30.18 851 25.13 -4.1 24.7 70 -8.7 16.3
23:30 1022 30.18 851 25.13 -4.2 24.5 70 -8.9 16
23:35 1022 30.18 851 25.13 -4.2 24.5 71 -8.8 16.2
23:40 1022 30.18 851 25.13 -4.4 24 72 -8.7 16.3
23:45 1022 30.18 851 25.13 -4.7 23.5 72 -9 15.8
23:50 1021 30.15 851 25.13 -4.5 23.9 70 -9.3 15.3
23:55 1021 30.15 851 25.13 -4.4 24 70 -9 15.7
24:00 1021 30.15 851 25.13 -4.6 23.7 71 -9.1 15.6